Missoula, Montana
Current Conditions -  °F | °C
As of 6:53 PM on Sunday 25 Jan 2015 (Local Time) from KMSO Reporting Station
Clear Clear  
Wind Chill: 38°   Ceiling: Unl
Heat Index: 38°   Visibility: 10mi
Dew Point: 33°   Wind: 3mph
Humidity: 83%   Direction: 60°ENE
Pressure: 30.23"   Gusts: NA
Location:  46.87°N, 113.99°W
Report Text: KMSO 260153Z 06003KT 10SM CLR 03/01 A3023 RMK AO2 SLP263 T00330006
Loading
Personal Weather Stations






























Interactive Weather Map New forecast layout! Learn more

10-Day Weather Forecast

Advertisements
Track Severe Weather on mobile